sensor_id;sensor_type;location;lat;lon;timestamp;temperature;humidity
17948;DHT22;9099;47.958;11.366;2023-04-24T00:01:59;10.50;99.90
17948;DHT22;9099;47.958;11.366;2023-04-24T00:04:26;10.50;99.90
17948;DHT22;9099;47.958;11.366;2023-04-24T00:06:53;10.50;99.90
17948;DHT22;9099;47.958;11.366;2023-04-24T00:09:22;10.50;99.90
17948;DHT22;9099;47.958;11.366;2023-04-24T00:11:49;10.50;99.90
17948;DHT22;9099;47.958;11.366;2023-04-24T00:14:16;10.50;99.90
17948;DHT22;9099;47.958;11.366;2023-04-24T00:16:44;10.40;99.90
17948;DHT22;9099;47.958;11.366;2023-04-24T00:19:11;10.50;99.90
17948;DHT22;9099;47.958;11.366;2023-04-24T00:21:38;10.40;99.90
17948;DHT22;9099;47.958;11.366;2023-04-24T00:24:06;10.40;99.90
17948;DHT22;9099;47.958;11.366;2023-04-24T00:26:34;10.30;99.90
17948;DHT22;9099;47.958;11.366;2023-04-24T00:29:01;10.30;99.90
17948;DHT22;9099;47.958;11.366;2023-04-24T00:31:28;10.30;99.90
17948;DHT22;9099;47.958;11.366;2023-04-24T00:33:57;10.30;99.90
17948;DHT22;9099;47.958;11.366;2023-04-24T00:36:24;10.30;99.90
17948;DHT22;9099;47.958;11.366;2023-04-24T00:38:52;10.30;99.90
17948;DHT22;9099;47.958;11.366;2023-04-24T00:41:19;10.20;99.90
17948;DHT22;9099;47.958;11.366;2023-04-24T00:43:46;10.20;99.90
17948;DHT22;9099;47.958;11.366;2023-04-24T00:46:13;10.20;99.90
17948;DHT22;9099;47.958;11.366;2023-04-24T00:48:40;10.20;99.90
17948;DHT22;9099;47.958;11.366;2023-04-24T00:51:08;10.20;99.90
17948;DHT22;9099;47.958;11.366;2023-04-24T00:53:35;10.20;99.90
17948;DHT22;9099;47.958;11.366;2023-04-24T00:56:02;10.20;99.90
17948;DHT22;9099;47.958;11.366;2023-04-24T00:58:30;10.20;99.90
17948;DHT22;9099;47.958;11.366;2023-04-24T01:00:58;10.20;99.90
17948;DHT22;9099;47.958;11.366;2023-04-24T01:03:29;10.20;99.90
17948;DHT22;9099;47.958;11.366;2023-04-24T01:05:57;10.20;99.90
17948;DHT22;9099;47.958;11.366;2023-04-24T01:08:26;10.20;99.90
17948;DHT22;9099;47.958;11.366;2023-04-24T01:10:55;10.30;99.90
17948;DHT22;9099;47.958;11.366;2023-04-24T01:13:23;10.30;99.90
17948;DHT22;9099;47.958;11.366;2023-04-24T01:15:50;10.20;99.90
17948;DHT22;9099;47.958;11.366;2023-04-24T01:18:17;10.20;99.90
17948;DHT22;9099;47.958;11.366;2023-04-24T01:20:45;10.20;99.90
17948;DHT22;9099;47.958;11.366;2023-04-24T01:23:14;10.20;99.90
17948;DHT22;9099;47.958;11.366;2023-04-24T01:25:40;10.10;99.90
17948;DHT22;9099;47.958;11.366;2023-04-24T01:28:07;10.10;99.90
17948;DHT22;9099;47.958;11.366;2023-04-24T01:30:34;10.10;99.90
17948;DHT22;9099;47.958;11.366;2023-04-24T01:33:01;10.10;99.90
17948;DHT22;9099;47.958;11.366;2023-04-24T01:35:28;10.10;99.90
17948;DHT22;9099;47.958;11.366;2023-04-24T01:37:55;10.10;99.90
17948;DHT22;9099;47.958;11.366;2023-04-24T01:40:23;10.10;99.90
17948;DHT22;9099;47.958;11.366;2023-04-24T01:42:51;10.10;99.90
17948;DHT22;9099;47.958;11.366;2023-04-24T01:45:18;10.10;99.90
17948;DHT22;9099;47.958;11.366;2023-04-24T01:47:45;10.10;99.90
17948;DHT22;9099;47.958;11.366;2023-04-24T01:50:14;10.00;99.90
17948;DHT22;9099;47.958;11.366;2023-04-24T01:52:41;10.00;99.90
17948;DHT22;9099;47.958;11.366;2023-04-24T01:55:09;10.00;99.90
17948;DHT22;9099;47.958;11.366;2023-04-24T01:57:38;10.00;99.90
17948;DHT22;9099;47.958;11.366;2023-04-24T02:00:06;10.00;99.90
17948;DHT22;9099;47.958;11.366;2023-04-24T02:02:33;10.00;99.90
17948;DHT22;9099;47.958;11.366;2023-04-24T02:05:00;10.10;99.90
17948;DHT22;9099;47.958;11.366;2023-04-24T02:07:28;10.10;99.90
17948;DHT22;9099;47.958;11.366;2023-04-24T02:09:55;10.10;99.90
17948;DHT22;9099;47.958;11.366;2023-04-24T02:12:21;10.10;99.90
17948;DHT22;9099;47.958;11.366;2023-04-24T02:14:50;10.00;99.90
17948;DHT22;9099;47.958;11.366;2023-04-24T02:17:16;10.00;99.90
17948;DHT22;9099;47.958;11.366;2023-04-24T02:19:44;10.00;99.90
17948;DHT22;9099;47.958;11.366;2023-04-24T02:22:12;10.00;99.90
17948;DHT22;9099;47.958;11.366;2023-04-24T02:24:39;10.00;99.90
17948;DHT22;9099;47.958;11.366;2023-04-24T02:27:06;10.00;99.90
17948;DHT22;9099;47.958;11.366;2023-04-24T02:29:33;9.90;99.90
17948;DHT22;9099;47.958;11.366;2023-04-24T02:32:01;9.90;99.90
17948;DHT22;9099;47.958;11.366;2023-04-24T02:34:28;9.90;99.90
17948;DHT22;9099;47.958;11.366;2023-04-24T02:36:55;9.90;99.90
17948;DHT22;9099;47.958;11.366;2023-04-24T02:39:22;9.90;99.90
17948;DHT22;9099;47.958;11.366;2023-04-24T02:41:49;9.90;99.90
17948;DHT22;9099;47.958;11.366;2023-04-24T02:44:15;9.90;99.90
17948;DHT22;9099;47.958;11.366;2023-04-24T02:46:43;9.90;99.90
17948;DHT22;9099;47.958;11.366;2023-04-24T02:49:11;9.90;99.90
17948;DHT22;9099;47.958;11.366;2023-04-24T02:51:38;9.90;99.90
17948;DHT22;9099;47.958;11.366;2023-04-24T02:54:07;9.90;99.90
17948;DHT22;9099;47.958;11.366;2023-04-24T02:56:34;9.90;99.90
17948;DHT22;9099;47.958;11.366;2023-04-24T02:59:01;9.90;99.90
17948;DHT22;9099;47.958;11.366;2023-04-24T03:01:28;9.90;99.90
17948;DHT22;9099;47.958;11.366;2023-04-24T03:03:55;10.00;99.90
17948;DHT22;9099;47.958;11.366;2023-04-24T03:06:23;9.90;99.90
17948;DHT22;9099;47.958;11.366;2023-04-24T03:08:50;9.90;99.90
17948;DHT22;9099;47.958;11.366;2023-04-24T03:11:17;9.90;99.90
17948;DHT22;9099;47.958;11.366;2023-04-24T03:13:43;9.90;99.90
17948;DHT22;9099;47.958;11.366;2023-04-24T03:16:10;9.90;99.90
17948;DHT22;9099;47.958;11.366;2023-04-24T03:18:37;9.80;99.90
17948;DHT22;9099;47.958;11.366;2023-04-24T03:21:04;9.70;99.90
17948;DHT22;9099;47.958;11.366;2023-04-24T03:23:32;9.70;99.90
17948;DHT22;9099;47.958;11.366;2023-04-24T03:25:59;9.60;99.90
17948;DHT22;9099;47.958;11.366;2023-04-24T03:28:26;9.50;99.90
17948;DHT22;9099;47.958;11.366;2023-04-24T03:30:53;9.50;99.90
17948;DHT22;9099;47.958;11.366;2023-04-24T03:33:20;9.50;99.90
17948;DHT22;9099;47.958;11.366;2023-04-24T03:35:47;9.60;99.90
17948;DHT22;9099;47.958;11.366;2023-04-24T03:38:13;9.60;99.90
17948;DHT22;9099;47.958;11.366;2023-04-24T03:40:41;9.60;99.90
17948;DHT22;9099;47.958;11.366;2023-04-24T03:43:08;9.60;99.90
17948;DHT22;9099;47.958;11.366;2023-04-24T03:45:35;9.60;99.90
17948;DHT22;9099;47.958;11.366;2023-04-24T03:48:02;9.60;99.90
17948;DHT22;9099;47.958;11.366;2023-04-24T03:50:29;9.70;99.90
17948;DHT22;9099;47.958;11.366;2023-04-24T03:52:56;9.70;99.90
17948;DHT22;9099;47.958;11.366;2023-04-24T03:55:23;9.80;99.90
17948;DHT22;9099;47.958;11.366;2023-04-24T03:57:51;9.80;99.90
17948;DHT22;9099;47.958;11.366;2023-04-24T04:00:18;9.80;99.90
17948;DHT22;9099;47.958;11.366;2023-04-24T04:02:46;9.80;99.90
17948;DHT22;9099;47.958;11.366;2023-04-24T04:05:13;9.70;99.90
17948;DHT22;9099;47.958;11.366;2023-04-24T04:07:40;9.70;99.90
17948;DHT22;9099;47.958;11.366;2023-04-24T04:10:07;9.70;99.90
17948;DHT22;9099;47.958;11.366;2023-04-24T04:12:34;9.70;99.90
17948;DHT22;9099;47.958;11.366;2023-04-24T04:15:03;9.70;99.90
17948;DHT22;9099;47.958;11.366;2023-04-24T04:17:31;9.70;99.90
17948;DHT22;9099;47.958;11.366;2023-04-24T04:19:58;9.70;99.90
17948;DHT22;9099;47.958;11.366;2023-04-24T04:22:25;9.60;99.90
17948;DHT22;9099;47.958;11.366;2023-04-24T04:24:52;9.60;99.90
17948;DHT22;9099;47.958;11.366;2023-04-24T04:27:19;9.70;99.90
17948;DHT22;9099;47.958;11.366;2023-04-24T04:29:46;9.60;99.90
17948;DHT22;9099;47.958;11.366;2023-04-24T04:32:15;9.60;99.90
17948;DHT22;9099;47.958;11.366;2023-04-24T04:34:42;9.60;99.90
17948;DHT22;9099;47.958;11.366;2023-04-24T04:37:10;9.60;99.90
17948;DHT22;9099;47.958;11.366;2023-04-24T04:39:38;9.60;99.90
17948;DHT22;9099;47.958;11.366;2023-04-24T04:42:05;9.60;99.90
17948;DHT22;9099;47.958;11.366;2023-04-24T04:44:32;9.60;99.90
17948;DHT22;9099;47.958;11.366;2023-04-24T04:47:01;9.60;99.90
17948;DHT22;9099;47.958;11.366;2023-04-24T04:49:32;9.60;99.90
17948;DHT22;9099;47.958;11.366;2023-04-24T04:51:59;9.60;99.90
17948;DHT22;9099;47.958;11.366;2023-04-24T04:54:26;9.60;99.90
17948;DHT22;9099;47.958;11.366;2023-04-24T04:56:53;9.60;99.90
17948;DHT22;9099;47.958;11.366;2023-04-24T04:59:20;9.60;99.90
17948;DHT22;9099;47.958;11.366;2023-04-24T05:01:47;9.70;99.90
17948;DHT22;9099;47.958;11.366;2023-04-24T05:04:13;9.60;99.90
17948;DHT22;9099;47.958;11.366;2023-04-24T05:06:42;9.70;99.90
17948;DHT22;9099;47.958;11.366;2023-04-24T05:09:08;9.70;99.90
17948;DHT22;9099;47.958;11.366;2023-04-24T05:11:35;9.60;99.90
17948;DHT22;9099;47.958;11.366;2023-04-24T05:14:02;9.60;99.90
17948;DHT22;9099;47.958;11.366;2023-04-24T05:16:29;9.60;99.90
17948;DHT22;9099;47.958;11.366;2023-04-24T05:18:56;9.60;99.90
17948;DHT22;9099;47.958;11.366;2023-04-24T05:21:23;9.60;99.90
17948;DHT22;9099;47.958;11.366;2023-04-24T05:23:52;9.70;99.90
17948;DHT22;9099;47.958;11.366;2023-04-24T05:26:18;9.70;99.90
17948;DHT22;9099;47.958;11.366;2023-04-24T05:28:45;9.70;99.90
17948;DHT22;9099;47.958;11.366;2023-04-24T05:31:12;9.70;99.90
17948;DHT22;9099;47.958;11.366;2023-04-24T05:33:39;9.70;99.90
17948;DHT22;9099;47.958;11.366;2023-04-24T05:36:06;9.80;99.90
17948;DHT22;9099;47.958;11.366;2023-04-24T05:38:33;9.80;99.90
17948;DHT22;9099;47.958;11.366;2023-04-24T05:41:01;9.80;99.90
17948;DHT22;9099;47.958;11.366;2023-04-24T05:43:28;9.90;99.90
17948;DHT22;9099;47.958;11.366;2023-04-24T05:45:55;10.00;99.90
17948;DHT22;9099;47.958;11.366;2023-04-24T05:48:22;10.00;99.90
17948;DHT22;9099;47.958;11.366;2023-04-24T05:50:49;10.00;99.90
17948;DHT22;9099;47.958;11.366;2023-04-24T05:53:16;10.00;99.90
17948;DHT22;9099;47.958;11.366;2023-04-24T05:55:43;10.10;99.90
17948;DHT22;9099;47.958;11.366;2023-04-24T05:58:11;10.00;99.90
17948;DHT22;9099;47.958;11.366;2023-04-24T06:00:38;10.10;99.90
17948;DHT22;9099;47.958;11.366;2023-04-24T06:03:08;10.10;99.90
17948;DHT22;9099;47.958;11.366;2023-04-24T06:05:35;10.00;99.90
17948;DHT22;9099;47.958;11.366;2023-04-24T06:08:02;10.00;99.90
17948;DHT22;9099;47.958;11.366;2023-04-24T06:10:28;10.10;99.90
17948;DHT22;9099;47.958;11.366;2023-04-24T06:12:55;10.20;99.90
17948;DHT22;9099;47.958;11.366;2023-04-24T06:15:28;10.20;99.90
17948;DHT22;9099;47.958;11.366;2023-04-24T06:17:56;10.20;99.90
17948;DHT22;9099;47.958;11.366;2023-04-24T06:20:23;10.30;99.90
17948;DHT22;9099;47.958;11.366;2023-04-24T06:22:50;10.40;99.90
17948;DHT22;9099;47.958;11.366;2023-04-24T06:25:17;10.40;99.90
17948;DHT22;9099;47.958;11.366;2023-04-24T06:27:44;10.40;99.90
17948;DHT22;9099;47.958;11.366;2023-04-24T06:30:11;10.50;99.90
17948;DHT22;9099;47.958;11.366;2023-04-24T06:32:40;10.50;99.90
17948;DHT22;9099;47.958;11.366;2023-04-24T06:35:07;10.40;99.90
17948;DHT22;9099;47.958;11.366;2023-04-24T06:37:35;10.40;99.90
17948;DHT22;9099;47.958;11.366;2023-04-24T06:40:02;10.50;99.90
17948;DHT22;9099;47.958;11.366;2023-04-24T06:42:29;10.60;99.90
17948;DHT22;9099;47.958;11.366;2023-04-24T06:44:56;10.70;99.90
17948;DHT22;9099;47.958;11.366;2023-04-24T06:47:23;10.70;99.90
17948;DHT22;9099;47.958;11.366;2023-04-24T06:49:51;10.70;99.90
17948;DHT22;9099;47.958;11.366;2023-04-24T06:52:18;10.80;99.90
17948;DHT22;9099;47.958;11.366;2023-04-24T06:54:45;10.80;99.90
17948;DHT22;9099;47.958;11.366;2023-04-24T06:57:12;10.90;99.90
17948;DHT22;9099;47.958;11.366;2023-04-24T06:59:39;10.90;99.90
17948;DHT22;9099;47.958;11.366;2023-04-24T07:02:06;10.90;99.90
17948;DHT22;9099;47.958;11.366;2023-04-24T07:04:32;10.90;99.90
17948;DHT22;9099;47.958;11.366;2023-04-24T07:07:01;10.90;99.90
17948;DHT22;9099;47.958;11.366;2023-04-24T07:09:28;10.90;99.90
17948;DHT22;9099;47.958;11.366;2023-04-24T07:11:55;11.00;99.90
17948;DHT22;9099;47.958;11.366;2023-04-24T07:14:22;11.20;99.90
17948;DHT22;9099;47.958;11.366;2023-04-24T07:16:49;11.30;99.90
17948;DHT22;9099;47.958;11.366;2023-04-24T07:19:16;11.40;99.90
17948;DHT22;9099;47.958;11.366;2023-04-24T07:21:43;11.40;99.90
17948;DHT22;9099;47.958;11.366;2023-04-24T07:24:12;11.50;99.90
17948;DHT22;9099;47.958;11.366;2023-04-24T07:26:38;11.70;99.90
17948;DHT22;9099;47.958;11.366;2023-04-24T07:29:06;11.60;99.90
17948;DHT22;9099;47.958;11.366;2023-04-24T07:31:32;11.50;99.90
17948;DHT22;9099;47.958;11.366;2023-04-24T07:33:59;11.50;99.90
17948;DHT22;9099;47.958;11.366;2023-04-24T07:36:26;11.50;99.90
17948;DHT22;9099;47.958;11.366;2023-04-24T07:38:54;11.40;99.90
17948;DHT22;9099;47.958;11.366;2023-04-24T07:41:22;11.40;99.90
17948;DHT22;9099;47.958;11.366;2023-04-24T07:43:49;11.40;99.90
17948;DHT22;9099;47.958;11.366;2023-04-24T07:46:16;11.50;99.90
17948;DHT22;9099;47.958;11.366;2023-04-24T07:48:43;11.50;99.90
17948;DHT22;9099;47.958;11.366;2023-04-24T07:51:11;11.50;99.90
17948;DHT22;9099;47.958;11.366;2023-04-24T07:53:39;11.60;99.90
17948;DHT22;9099;47.958;11.366;2023-04-24T07:56:05;11.60;99.90
17948;DHT22;9099;47.958;11.366;2023-04-24T07:58:34;11.60;99.90
17948;DHT22;9099;47.958;11.366;2023-04-24T08:01:01;11.60;99.90
17948;DHT22;9099;47.958;11.366;2023-04-24T08:03:28;11.50;99.90
17948;DHT22;9099;47.958;11.366;2023-04-24T08:05:55;11.40;99.90
17948;DHT22;9099;47.958;11.366;2023-04-24T08:08:22;11.40;99.90
17948;DHT22;9099;47.958;11.366;2023-04-24T08:10:50;11.30;99.90
17948;DHT22;9099;47.958;11.366;2023-04-24T08:13:16;11.30;99.90
17948;DHT22;9099;47.958;11.366;2023-04-24T08:15:45;11.30;99.90
17948;DHT22;9099;47.958;11.366;2023-04-24T08:18:11;11.30;99.90
17948;DHT22;9099;47.958;11.366;2023-04-24T08:20:39;11.30;99.90
17948;DHT22;9099;47.958;11.366;2023-04-24T08:23:06;11.40;99.90
17948;DHT22;9099;47.958;11.366;2023-04-24T08:25:33;11.40;99.90
17948;DHT22;9099;47.958;11.366;2023-04-24T08:28:02;11.50;99.90
17948;DHT22;9099;47.958;11.366;2023-04-24T08:30:29;11.60;99.90
17948;DHT22;9099;47.958;11.366;2023-04-24T08:32:57;11.70;99.90
17948;DHT22;9099;47.958;11.366;2023-04-24T08:35:24;11.80;99.90
17948;DHT22;9099;47.958;11.366;2023-04-24T08:37:52;11.90;99.90
17948;DHT22;9099;47.958;11.366;2023-04-24T08:40:22;11.70;99.90
17948;DHT22;9099;47.958;11.366;2023-04-24T08:42:54;11.60;99.90
17948;DHT22;9099;47.958;11.366;2023-04-24T08:45:21;11.50;99.90
17948;DHT22;9099;47.958;11.366;2023-04-24T08:47:49;11.40;99.90
17948;DHT22;9099;47.958;11.366;2023-04-24T08:50:18;11.30;99.90
17948;DHT22;9099;47.958;11.366;2023-04-24T08:52:44;11.20;99.90
17948;DHT22;9099;47.958;11.366;2023-04-24T08:55:11;11.10;99.90
17948;DHT22;9099;47.958;11.366;2023-04-24T08:57:39;11.10;99.90
17948;DHT22;9099;47.958;11.366;2023-04-24T09:00:07;11.10;99.90
17948;DHT22;9099;47.958;11.366;2023-04-24T09:02:34;11.10;99.90
17948;DHT22;9099;47.958;11.366;2023-04-24T09:05:02;11.10;99.90
17948;DHT22;9099;47.958;11.366;2023-04-24T09:07:32;11.20;99.90
17948;DHT22;9099;47.958;11.366;2023-04-24T09:10:01;11.30;99.90
17948;DHT22;9099;47.958;11.366;2023-04-24T09:12:28;11.50;99.90
17948;DHT22;9099;47.958;11.366;2023-04-24T09:14:56;11.90;99.90
17948;DHT22;9099;47.958;11.366;2023-04-24T09:17:24;12.10;99.90
17948;DHT22;9099;47.958;11.366;2023-04-24T09:19:52;12.20;99.90
17948;DHT22;9099;47.958;11.366;2023-04-24T09:22:20;12.30;99.90
17948;DHT22;9099;47.958;11.366;2023-04-24T09:24:48;12.30;99.90
17948;DHT22;9099;47.958;11.366;2023-04-24T09:27:28;12.50;99.90
17948;DHT22;9099;47.958;11.366;2023-04-24T09:29:55;12.70;99.90
17948;DHT22;9099;47.958;11.366;2023-04-24T09:32:23;12.80;99.90
17948;DHT22;9099;47.958;11.366;2023-04-24T09:35:06;12.80;99.90
17948;DHT22;9099;47.958;11.366;2023-04-24T09:37:35;12.80;99.90
17948;DHT22;9099;47.958;11.366;2023-04-24T09:40:15;12.70;99.90
17948;DHT22;9099;47.958;11.366;2023-04-24T09:42:45;12.60;99.90
17948;DHT22;9099;47.958;11.366;2023-04-24T09:45:12;12.60;99.90
17948;DHT22;9099;47.958;11.366;2023-04-24T09:47:40;12.70;99.90
17948;DHT22;9099;47.958;11.366;2023-04-24T09:50:13;12.70;99.90
17948;DHT22;9099;47.958;11.366;2023-04-24T09:52:41;12.80;99.90
17948;DHT22;9099;47.958;11.366;2023-04-24T09:55:19;13.00;99.90
17948;DHT22;9099;47.958;11.366;2023-04-24T09:57:50;13.30;99.90
17948;DHT22;9099;47.958;11.366;2023-04-24T10:00:24;13.50;99.90
17948;DHT22;9099;47.958;11.366;2023-04-24T10:02:56;13.90;99.90
17948;DHT22;9099;47.958;11.366;2023-04-24T10:05:24;14.00;99.90
17948;DHT22;9099;47.958;11.366;2023-04-24T10:07:51;13.90;99.90
17948;DHT22;9099;47.958;11.366;2023-04-24T10:10:20;13.90;99.90
17948;DHT22;9099;47.958;11.366;2023-04-24T10:12:47;13.70;99.90
17948;DHT22;9099;47.958;11.366;2023-04-24T10:15:15;13.80;99.90
17948;DHT22;9099;47.958;11.366;2023-04-24T10:17:47;13.90;99.90
17948;DHT22;9099;47.958;11.366;2023-04-24T10:20:18;14.00;99.90
17948;DHT22;9099;47.958;11.366;2023-04-24T10:22:47;14.10;99.90
17948;DHT22;9099;47.958;11.366;2023-04-24T10:25:16;14.10;99.90
17948;DHT22;9099;47.958;11.366;2023-04-24T10:27:45;14.10;99.90
17948;DHT22;9099;47.958;11.366;2023-04-24T10:30:13;14.10;99.90
17948;DHT22;9099;47.958;11.366;2023-04-24T10:32:40;14.10;99.90
17948;DHT22;9099;47.958;11.366;2023-04-24T10:35:07;14.50;99.90
17948;DHT22;9099;47.958;11.366;2023-04-24T10:37:37;14.70;99.90
17948;DHT22;9099;47.958;11.366;2023-04-24T10:40:06;14.50;99.90
17948;DHT22;9099;47.958;11.366;2023-04-24T10:42:34;14.30;99.90
17948;DHT22;9099;47.958;11.366;2023-04-24T10:45:06;14.10;99.90
17948;DHT22;9099;47.958;11.366;2023-04-24T10:47:40;13.60;99.90
17948;DHT22;9099;47.958;11.366;2023-04-24T10:50:09;13.10;99.90
17948;DHT22;9099;47.958;11.366;2023-04-24T10:52:45;12.70;99.90
17948;DHT22;9099;47.958;11.366;2023-04-24T10:55:12;12.90;99.90
17948;DHT22;9099;47.958;11.366;2023-04-24T10:57:39;13.40;99.90
17948;DHT22;9099;47.958;11.366;2023-04-24T11:00:19;14.10;99.90
17948;DHT22;9099;47.958;11.366;2023-04-24T11:02:48;14.40;99.90
17948;DHT22;9099;47.958;11.366;2023-04-24T11:05:16;14.80;99.90
17948;DHT22;9099;47.958;11.366;2023-04-24T11:08:12;14.70;99.90
17948;DHT22;9099;47.958;11.366;2023-04-24T11:10:40;15.10;99.90
17948;DHT22;9099;47.958;11.366;2023-04-24T11:13:07;15.50;99.90
17948;DHT22;9099;47.958;11.366;2023-04-24T11:15:36;15.30;99.90
17948;DHT22;9099;47.958;11.366;2023-04-24T11:18:03;15.10;99.90
17948;DHT22;9099;47.958;11.366;2023-04-24T11:20:30;14.50;99.90
17948;DHT22;9099;47.958;11.366;2023-04-24T11:23:03;14.10;99.90
17948;DHT22;9099;47.958;11.366;2023-04-24T11:25:32;13.80;99.90
17948;DHT22;9099;47.958;11.366;2023-04-24T11:28:08;14.20;99.90
17948;DHT22;9099;47.958;11.366;2023-04-24T11:30:42;14.90;99.90
17948;DHT22;9099;47.958;11.366;2023-04-24T11:33:09;15.60;99.90
17948;DHT22;9099;47.958;11.366;2023-04-24T11:35:40;15.80;99.90
17948;DHT22;9099;47.958;11.366;2023-04-24T11:38:07;16.30;99.90
17948;DHT22;9099;47.958;11.366;2023-04-24T11:40:34;16.50;99.90
17948;DHT22;9099;47.958;11.366;2023-04-24T11:43:01;16.80;99.90
17948;DHT22;9099;47.958;11.366;2023-04-24T11:45:30;16.80;99.90
17948;DHT22;9099;47.958;11.366;2023-04-24T11:47:58;16.50;99.90
17948;DHT22;9099;47.958;11.366;2023-04-24T11:50:26;16.30;99.90
17948;DHT22;9099;47.958;11.366;2023-04-24T11:52:54;16.20;99.90
17948;DHT22;9099;47.958;11.366;2023-04-24T11:55:26;16.20;99.90
17948;DHT22;9099;47.958;11.366;2023-04-24T11:57:54;16.20;99.90
17948;DHT22;9099;47.958;11.366;2023-04-24T12:00:24;16.10;99.90
17948;DHT22;9099;47.958;11.366;2023-04-24T12:02:52;16.20;99.90
17948;DHT22;9099;47.958;11.366;2023-04-24T12:05:30;15.90;99.90
17948;DHT22;9099;47.958;11.366;2023-04-24T12:07:57;15.50;99.90
17948;DHT22;9099;47.958;11.366;2023-04-24T12:10:25;15.40;99.90
17948;DHT22;9099;47.958;11.366;2023-04-24T12:12:53;15.50;99.90
17948;DHT22;9099;47.958;11.366;2023-04-24T12:15:20;15.70;99.90
17948;DHT22;9099;47.958;11.366;2023-04-24T12:17:48;15.80;99.90
17948;DHT22;9099;47.958;11.366;2023-04-24T12:20:17;15.70;99.90
17948;DHT22;9099;47.958;11.366;2023-04-24T12:22:54;15.70;99.90
17948;DHT22;9099;47.958;11.366;2023-04-24T12:25:23;15.60;99.90
17948;DHT22;9099;47.958;11.366;2023-04-24T12:27:53;15.80;99.90
17948;DHT22;9099;47.958;11.366;2023-04-24T12:30:21;15.70;99.90
17948;DHT22;9099;47.958;11.366;2023-04-24T12:32:52;15.70;99.90
17948;DHT22;9099;47.958;11.366;2023-04-24T12:35:22;15.80;99.90
17948;DHT22;9099;47.958;11.366;2023-04-24T12:37:50;15.50;99.90
17948;DHT22;9099;47.958;11.366;2023-04-24T12:40:19;14.80;99.90
17948;DHT22;9099;47.958;11.366;2023-04-24T12:42:47;13.90;99.90
17948;DHT22;9099;47.958;11.366;2023-04-24T12:45:15;13.20;99.90
17948;DHT22;9099;47.958;11.366;2023-04-24T12:47:43;12.70;99.90
17948;DHT22;9099;47.958;11.366;2023-04-24T12:50:11;12.40;99.90
17948;DHT22;9099;47.958;11.366;2023-04-24T12:52:38;12.20;99.90
17948;DHT22;9099;47.958;11.366;2023-04-24T12:55:08;12.10;99.90
17948;DHT22;9099;47.958;11.366;2023-04-24T12:57:37;12.00;99.90
17948;DHT22;9099;47.958;11.366;2023-04-24T13:00:05;11.90;99.90
17948;DHT22;9099;47.958;11.366;2023-04-24T13:02:33;12.00;99.90
17948;DHT22;9099;47.958;11.366;2023-04-24T13:05:00;12.20;99.90
17948;DHT22;9099;47.958;11.366;2023-04-24T13:07:27;12.80;99.90
17948;DHT22;9099;47.958;11.366;2023-04-24T13:09:55;13.40;99.90
17948;DHT22;9099;47.958;11.366;2023-04-24T13:12:24;13.90;99.90
17948;DHT22;9099;47.958;11.366;2023-04-24T13:14:51;13.90;99.90
17948;DHT22;9099;47.958;11.366;2023-04-24T13:17:18;13.90;99.90
17948;DHT22;9099;47.958;11.366;2023-04-24T13:19:45;14.10;99.90
17948;DHT22;9099;47.958;11.366;2023-04-24T13:22:12;14.00;99.90
17948;DHT22;9099;47.958;11.366;2023-04-24T13:24:40;14.30;99.90
17948;DHT22;9099;47.958;11.366;2023-04-24T13:27:08;14.30;99.90
17948;DHT22;9099;47.958;11.366;2023-04-24T13:29:37;14.00;99.90
17948;DHT22;9099;47.958;11.366;2023-04-24T13:32:03;13.60;99.90
17948;DHT22;9099;47.958;11.366;2023-04-24T13:34:30;13.50;99.90
17948;DHT22;9099;47.958;11.366;2023-04-24T13:36:58;13.30;99.90
17948;DHT22;9099;47.958;11.366;2023-04-24T13:39:26;13.20;99.90
17948;DHT22;9099;47.958;11.366;2023-04-24T13:41:54;13.20;99.90
17948;DHT22;9099;47.958;11.366;2023-04-24T13:44:22;13.20;99.90
17948;DHT22;9099;47.958;11.366;2023-04-24T13:46:53;13.10;99.90
17948;DHT22;9099;47.958;11.366;2023-04-24T13:49:22;12.90;99.90
17948;DHT22;9099;47.958;11.366;2023-04-24T13:51:50;12.90;99.90
17948;DHT22;9099;47.958;11.366;2023-04-24T13:54:17;13.00;99.90
17948;DHT22;9099;47.958;11.366;2023-04-24T13:56:44;12.90;99.90
17948;DHT22;9099;47.958;11.366;2023-04-24T13:59:12;13.00;99.90
17948;DHT22;9099;47.958;11.366;2023-04-24T14:01:39;13.10;99.90
17948;DHT22;9099;47.958;11.366;2023-04-24T14:04:07;13.10;99.90
17948;DHT22;9099;47.958;11.366;2023-04-24T14:06:34;13.10;99.90
17948;DHT22;9099;47.958;11.366;2023-04-24T14:09:01;13.00;99.90
17948;DHT22;9099;47.958;11.366;2023-04-24T14:11:28;13.00;99.90
17948;DHT22;9099;47.958;11.366;2023-04-24T14:13:55;12.90;99.90
17948;DHT22;9099;47.958;11.366;2023-04-24T14:16:22;12.80;99.90
17948;DHT22;9099;47.958;11.366;2023-04-24T14:18:49;12.90;99.90
17948;DHT22;9099;47.958;11.366;2023-04-24T14:21:18;13.20;99.90
17948;DHT22;9099;47.958;11.366;2023-04-24T14:23:45;13.50;99.90
17948;DHT22;9099;47.958;11.366;2023-04-24T14:26:12;14.20;99.90
17948;DHT22;9099;47.958;11.366;2023-04-24T14:28:38;14.80;99.90
17948;DHT22;9099;47.958;11.366;2023-04-24T14:31:06;15.20;99.90
17948;DHT22;9099;47.958;11.366;2023-04-24T14:33:33;15.40;99.90
17948;DHT22;9099;47.958;11.366;2023-04-24T14:36:00;15.60;99.90
17948;DHT22;9099;47.958;11.366;2023-04-24T14:38:29;15.70;99.90
17948;DHT22;9099;47.958;11.366;2023-04-24T14:40:57;15.40;99.90
17948;DHT22;9099;47.958;11.366;2023-04-24T14:43:23;15.10;99.90
17948;DHT22;9099;47.958;11.366;2023-04-24T14:45:50;14.70;99.90
17948;DHT22;9099;47.958;11.366;2023-04-24T14:48:17;14.30;99.90
17948;DHT22;9099;47.958;11.366;2023-04-24T14:50:44;14.30;99.90
17948;DHT22;9099;47.958;11.366;2023-04-24T14:53:11;14.70;99.90
17948;DHT22;9099;47.958;11.366;2023-04-24T14:55:39;14.90;99.90
17948;DHT22;9099;47.958;11.366;2023-04-24T14:58:06;15.30;99.90
17948;DHT22;9099;47.958;11.366;2023-04-24T15:00:33;15.60;99.90
17948;DHT22;9099;47.958;11.366;2023-04-24T15:03:00;15.40;99.90
17948;DHT22;9099;47.958;11.366;2023-04-24T15:05:27;15.40;99.90
17948;DHT22;9099;47.958;11.366;2023-04-24T15:07:55;15.70;99.90
17948;DHT22;9099;47.958;11.366;2023-04-24T15:10:22;15.50;99.90
17948;DHT22;9099;47.958;11.366;2023-04-24T15:12:52;15.50;99.90
17948;DHT22;9099;47.958;11.366;2023-04-24T15:15:19;15.30;99.90
17948;DHT22;9099;47.958;11.366;2023-04-24T15:17:46;15.10;99.90
17948;DHT22;9099;47.958;11.366;2023-04-24T15:20:12;15.00;99.90
17948;DHT22;9099;47.958;11.366;2023-04-24T15:22:40;15.30;99.90
17948;DHT22;9099;47.958;11.366;2023-04-24T15:25:07;15.60;99.90
17948;DHT22;9099;47.958;11.366;2023-04-24T15:27:41;15.70;99.90
17948;DHT22;9099;47.958;11.366;2023-04-24T15:30:10;15.50;99.90
17948;DHT22;9099;47.958;11.366;2023-04-24T15:32:37;15.20;99.90
17948;DHT22;9099;47.958;11.366;2023-04-24T15:35:05;14.80;99.90
17948;DHT22;9099;47.958;11.366;2023-04-24T15:37:32;14.60;99.90
17948;DHT22;9099;47.958;11.366;2023-04-24T15:39:59;14.30;99.90